Time;durP1;ratioP1;P1;durP2;ratioP2;P2;SDS_P1;SDS_P2;PMS_P1;PMS_P2;Temp;Humidity;BMP_temperature;BMP_pressure;BME280_temperature;BME280_humidity;BME280_pressure;Samples;Min_cycle;Max_cycle;Signal;HPM_P1;HPM_P2
2022/04/27 00:00:15;;;;;;;5.28;3.20;;;;;;;;;;5131158;27;20086;-64
2022/04/27 00:02:41;;;;;;;7.18;2.75;;;17.50;76.30;;;;;;5133549;27;20039;-65
2022/04/27 00:05:08;;;;;;;5.40;2.90;;;17.70;76.50;;;;;;5129773;27;20053;-64
2022/04/27 00:07:34;;;;;;;6.55;3.15;;;17.60;76.40;;;;;;5109490;27;20399;-65
2022/04/27 00:10:00;;;;;;;4.40;2.70;;;17.40;76.30;;;;;;5155595;27;20045;-65
2022/04/27 00:12:26;;;;;;;6.20;3.30;;;17.60;76.50;;;;;;5128985;27;20118;-65
2022/04/27 00:14:52;;;;;;;6.10;3.17;;;17.60;74.50;;;;;;5142904;27;20391;-65
2022/04/27 00:17:18;;;;;;;6.13;3.00;;;;;;;;;;5129942;27;20047;-65
2022/04/27 00:19:44;;;;;;;5.03;2.92;;;17.70;76.70;;;;;;5118425;27;20046;-65
2022/04/27 00:22:11;;;;;;;6.78;3.30;;;17.50;76.60;;;;;;5148871;27;20047;-65
2022/04/27 00:24:39;;;;;;;6.05;2.97;;;17.70;73.80;;;;;;5138440;27;20038;-65
2022/04/27 00:27:05;;;;;;;6.53;2.70;;;17.60;76.50;;;;;;5137647;27;20043;-65
2022/04/27 00:29:31;;;;;;;5.60;2.83;;;17.30;73.60;;;;;;5127338;27;20039;-66
2022/04/27 00:31:57;;;;;;;6.50;2.70;;;17.20;76.30;;;;;;5117227;27;20051;-66
2022/04/27 00:34:22;;;;;;;6.60;3.33;;;17.30;76.40;;;;;;5135082;27;20045;-65
2022/04/27 00:36:48;;;;;;;5.13;2.85;;;17.50;76.50;;;;;;5135077;27;20051;-65
2022/04/27 00:39:16;;;;;;;4.70;2.70;;;;;;;;;;5117618;27;20488;-64
2022/04/27 00:41:58;;;;;;;7.45;3.00;;;17.40;76.40;;;;;;5127878;27;20049;-65
2022/04/27 00:44:32;;;;;;;6.35;3.15;;;17.70;76.60;;;;;;5122096;27;20046;-64
2022/04/27 00:46:58;;;;;;;5.35;3.22;;;17.70;76.60;;;;;;5156125;27;20039;-64
2022/04/27 00:49:24;;;;;;;6.22;3.10;;;;;;;;;;5134404;27;20056;-65
2022/04/27 00:51:50;;;;;;;8.43;4.05;;;17.50;76.50;;;;;;5116645;27;20396;-66
2022/04/27 00:54:16;;;;;;;6.88;2.80;;;17.50;76.70;;;;;;5136693;27;20054;-65
2022/04/27 00:56:42;;;;;;;7.20;2.97;;;17.10;76.30;;;;;;5125807;27;20039;-64
2022/04/27 00:59:08;;;;;;;7.15;2.97;;;17.20;73.80;;;;;;5106378;27;20047;-64
2022/04/27 01:01:34;;;;;;;9.23;3.40;;;17.20;76.40;;;;;;5142758;27;20091;-64
2022/04/27 01:04:00;;;;;;;7.00;3.22;;;17.20;76.50;;;;;;5136102;27;20491;-64
2022/04/27 01:06:27;;;;;;;5.40;2.80;;;17.40;76.50;;;;;;5129460;27;20035;-65
2022/04/27 01:08:55;;;;;;;6.72;3.30;;;17.60;76.70;;;;;;5120013;27;20053;-63
2022/04/27 01:11:22;;;;;;;4.75;2.80;;;17.70;76.70;;;;;;5117838;27;20039;-63
2022/04/27 01:13:47;;;;;;;6.65;3.13;;;17.40;76.50;;;;;;5116905;27;20057;-63
2022/04/27 01:16:13;;;;;;;7.30;3.00;;;;;;;;;;5134461;27;20502;-64
2022/04/27 01:18:43;;;;;;;6.43;3.00;;;;;;;;;;5138572;27;20066;-63
2022/04/27 01:21:08;;;;;;;7.25;3.45;;;17.60;76.90;;;;;;5140166;27;20061;-63
2022/04/27 01:23:34;;;;;;;6.28;3.35;;;17.30;76.50;;;;;;5126101;27;20039;-62
2022/04/27 01:26:05;;;;;;;6.28;2.90;;;17.40;76.60;;;;;;5134685;27;20046;-63
2022/04/27 01:28:31;;;;;;;6.28;3.10;;;;;;;;;;5135283;27;20039;-64
2022/04/27 01:31:01;;;;;;;6.95;2.97;;;17.30;76.60;;;;;;5138431;27;20415;-64
2022/04/27 01:33:27;;;;;;;7.15;3.25;;;17.50;77.10;;;;;;5130562;27;20424;-64
2022/04/27 01:35:53;;;;;;;7.93;3.10;;;17.40;76.90;;;;;;5136700;27;20412;-67
2022/04/27 01:38:19;;;;;;;5.57;2.72;;;17.60;76.90;;;;;;5146869;27;20050;-63
2022/04/27 01:40:46;;;;;;;6.10;3.15;;;17.40;76.70;;;;;;5098605;27;20051;-64
2022/04/27 01:43:15;;;;;;;6.82;3.00;;;17.40;76.70;;;;;;5116718;27;20039;-66
2022/04/27 01:45:42;;;;;;;7.38;3.00;;;17.50;76.80;;;;;;5153085;27;20035;-65
2022/04/27 01:48:09;;;;;;;7.22;3.15;;;17.40;76.70;;;;;;5096728;27;20395;-62
2022/04/27 01:50:34;;;;;;;7.07;3.22;;;17.40;76.90;;;;;;5135233;27;20042;-63
2022/04/27 01:55:44;;;;;;;5.22;3.15;;;17.20;76.90;;;;;;5141416;27;20122;-65
2022/04/27 01:58:10;;;;;;;5.57;2.75;;;;;;;;;;5135681;27;20176;-65
2022/04/27 02:00:36;;;;;;;6.20;3.25;;;17.30;76.80;;;;;;5138476;27;20088;-63
2022/04/27 02:03:02;;;;;;;5.55;3.30;;;17.60;77.00;;;;;;5155427;27;20073;-66
2022/04/27 02:05:28;;;;;;;6.65;3.33;;;17.60;76.80;;;;;;5157421;27;20042;-63
2022/04/27 02:07:54;;;;;;;6.90;3.65;;;17.40;76.90;;;;;;5158752;27;20042;-63
2022/04/27 02:10:20;;;;;;;7.45;3.22;;;17.30;76.90;;;;;;5137971;27;20114;-63
2022/04/27 02:12:46;;;;;;;5.95;3.20;;;17.20;76.80;;;;;;5159188;27;20453;-64
2022/04/27 02:15:11;;;;;;;5.80;3.25;;;17.60;77.00;;;;;;5159054;27;20122;-65
2022/04/27 02:17:37;;;;;;;7.28;3.13;;;17.40;74.30;;;;;;5107659;27;20432;-63
2022/04/27 02:20:04;;;;;;;8.32;3.25;;;17.40;76.90;;;;;;5136501;27;20089;-63
2022/04/27 02:22:33;;;;;;;5.88;3.20;;;17.30;73.70;;;;;;5117371;27;20047;-63
2022/04/27 02:25:00;;;;;;;7.50;3.33;;;17.30;76.90;;;;;;5129018;27;20055;-63
2022/04/27 02:27:25;;;;;;;7.88;3.53;;;17.20;77.20;;;;;;5137896;27;20078;-64
2022/04/27 02:29:51;;;;;;;5.38;3.35;;;;;;;;;;5131872;27;20077;-65
2022/04/27 02:32:18;;;;;;;5.47;3.05;;;17.30;77.10;;;;;;5141477;27;20039;-65
2022/04/27 02:34:44;;;;;;;6.00;3.15;;;17.10;76.90;;;;;;5137881;27;20373;-65
2022/04/27 02:37:10;;;;;;;7.43;3.55;;;17.30;77.00;;;;;;5142176;27;20061;-66
2022/04/27 02:39:36;;;;;;;6.68;3.40;;;17.40;76.80;;;;;;5135527;27;20042;-64
2022/04/27 02:42:01;;;;;;;7.32;3.40;;;17.50;77.10;;;;;;5126896;27;20039;-65
2022/04/27 02:44:27;;;;;;;5.25;2.97;;;17.60;77.50;;;;;;5139741;27;20074;-65
2022/04/27 02:46:53;;;;;;;6.07;3.70;;;17.10;77.10;;;;;;5158492;27;20039;-65
2022/04/27 02:52:03;;;;;;;6.25;3.40;;;17.50;77.50;;;;;;5153553;27;20039;-65
2022/04/27 02:54:30;;;;;;;6.13;3.30;;;17.30;77.20;;;;;;5126279;27;20047;-65
2022/04/27 02:56:56;;;;;;;7.63;3.28;;;17.20;77.20;;;;;;5138707;27;20126;-64
2022/04/27 02:59:21;;;;;;;5.65;3.47;;;17.50;77.20;;;;;;5122266;27;20126;-65
2022/04/27 03:01:48;;;;;;;6.15;3.50;;;17.20;77.20;;;;;;5122469;27;20042;-64
2022/04/27 03:04:14;;;;;;;5.82;3.30;;;17.40;74.60;;;;;;5140050;27;20047;-65
2022/04/27 03:06:40;;;;;;;6.07;3.25;;;17.00;76.90;;;;;;5138925;27;20468;-65
2022/04/27 03:09:06;;;;;;;6.50;3.60;;;17.30;74.50;;;;;;5138680;27;20047;-66
2022/04/27 03:11:31;;;;;;;7.40;3.95;;;17.30;77.10;;;;;;5114085;27;20047;-65
2022/04/27 03:13:57;;;;;;;5.75;3.65;;;17.00;77.30;;;;;;5137311;27;20035;-65
2022/04/27 03:16:23;;;;;;;6.00;3.78;;;17.50;77.30;;;;;;5118969;27;20523;-65
2022/04/27 03:18:49;;;;;;;6.65;3.70;;;17.30;77.20;;;;;;5137118;27;20369;-64
2022/04/27 03:21:15;;;;;;;5.57;3.58;;;;;;;;;;5136636;27;20165;-65
2022/04/27 03:23:41;;;;;;;6.95;4.22;;;17.30;77.20;;;;;;5118289;27;20062;-65
2022/04/27 03:26:06;;;;;;;7.18;3.80;;;17.50;77.60;;;;;;5134514;27;20499;-65
2022/04/27 03:28:32;;;;;;;6.60;3.65;;;17.40;74.60;;;;;;5149224;27;20049;-65
2022/04/27 03:30:58;;;;;;;6.63;3.75;;;17.30;77.20;;;;;;5136939;27;20039;-64
2022/04/27 03:33:23;;;;;;;7.18;4.00;;;17.50;77.30;;;;;;5138269;27;20042;-64
2022/04/27 03:35:49;;;;;;;8.48;3.75;;;17.20;77.30;;;;;;5151378;27;20051;-65
2022/04/27 03:38:15;;;;;;;5.78;3.60;;;17.20;77.20;;;;;;5156123;27;20043;-65
2022/04/27 03:40:46;;;;;;;6.45;3.60;;;17.00;77.00;;;;;;5102056;27;20046;-65
2022/04/27 03:43:11;;;;;;;7.22;3.53;;;17.30;77.30;;;;;;5136726;27;20166;-65
2022/04/27 03:45:37;;;;;;;7.25;4.10;;;16.90;77.00;;;;;;5142773;27;20138;-65
2022/04/27 03:48:04;;;;;;;6.97;4.05;;;17.10;77.40;;;;;;5155722;27;20039;-65
2022/04/27 03:50:29;;;;;;;7.40;3.88;;;17.20;77.50;;;;;;5157102;27;20060;-65
2022/04/27 03:52:55;;;;;;;9.85;4.63;;;16.90;77.20;;;;;;5138706;27;20226;-65
2022/04/27 03:55:21;;;;;;;7.00;3.97;;;;;;;;;;5135054;27;20504;-63
2022/04/27 03:57:47;;;;;;;6.85;3.47;;;;;;;;;;5150691;27;20051;-65
2022/04/27 04:00:13;;;;;;;8.80;4.10;;;17.50;77.30;;;;;;5154457;27;20046;-66
2022/04/27 04:02:39;;;;;;;6.15;3.85;;;17.30;77.30;;;;;;5128219;27;20559;-64
2022/04/27 04:05:05;;;;;;;7.68;4.70;;;17.20;77.40;;;;;;5117698;27;20130;-64
2022/04/27 04:07:32;;;;;;;6.38;4.03;;;17.20;74.20;;;;;;5101353;27;20065;-64
2022/04/27 04:09:57;;;;;;;6.65;3.92;;;17.30;77.30;;;;;;5117736;27;20054;-64
2022/04/27 04:12:23;;;;;;;6.72;3.85;;;17.40;77.70;;;;;;5101218;27;20475;-65
2022/04/27 04:14:50;;;;;;;7.55;4.03;;;17.30;77.50;;;;;;5135605;27;20035;-65
2022/04/27 04:17:17;;;;;;;7.40;4.30;;;;;;;;;;5100136;27;20104;-65
2022/04/27 04:19:43;;;;;;;8.50;4.00;;;;;;;;;;5146355;27;20121;-65
2022/04/27 04:22:09;;;;;;;7.38;3.95;;;17.30;74.80;;;;;;5146556;27;20039;-65
2022/04/27 04:24:35;;;;;;;6.03;4.00;;;;;;;;;;5156376;27;20261;-64
2022/04/27 04:29:45;;;;;;;6.45;3.65;;;17.20;77.40;;;;;;5118349;27;20385;-65
2022/04/27 04:32:11;;;;;;;6.28;3.90;;;;;;;;;;5117415;27;20054;-65
2022/04/27 04:34:36;;;;;;;6.80;4.00;;;17.20;77.50;;;;;;5138592;27;20039;-65
2022/04/27 04:37:02;;;;;;;6.90;4.07;;;17.30;77.50;;;;;;5091140;27;20061;-65
2022/04/27 04:39:28;;;;;;;7.38;3.88;;;17.30;75.00;;;;;;5135707;27;20051;-65
2022/04/27 04:41:54;;;;;;;7.93;3.97;;;17.20;77.60;;;;;;5117231;27;20050;-65
2022/04/27 04:44:20;;;;;;;7.35;3.75;;;17.20;77.80;;;;;;5145064;27;20380;-65
2022/04/27 04:46:46;;;;;;;10.00;4.00;;;;;;;;;;5156154;27;20053;-65
2022/04/27 04:49:12;;;;;;;7.25;4.22;;;17.40;77.80;;;;;;5143546;27;20047;-65
2022/04/27 04:51:37;;;;;;;6.10;3.53;;;17.20;77.70;;;;;;5135049;27;20038;-65
2022/04/27 04:54:03;;;;;;;7.22;4.10;;;17.20;78.10;;;;;;5147383;27;20042;-65
2022/04/27 04:56:30;;;;;;;7.10;4.30;;;;;;;;;;5155729;27;20039;-63
2022/04/27 04:58:55;;;;;;;7.15;4.60;;;17.30;77.60;;;;;;5133000;27;20042;-66
2022/04/27 05:01:21;;;;;;;7.35;4.30;;;17.30;77.90;;;;;;5149115;27;20388;-65
2022/04/27 05:03:47;;;;;;;7.35;4.43;;;17.20;78.00;;;;;;5135953;27;20045;-65
2022/04/27 05:06:14;;;;;;;6.28;4.15;;;17.30;77.90;;;;;;5155740;27;20035;-65
2022/04/27 05:08:40;;;;;;;7.45;4.28;;;17.20;77.90;;;;;;5137316;27;20095;-65
2022/04/27 05:11:05;;;;;;;8.60;4.68;;;17.10;75.10;;;;;;5139226;27;20126;-65
2022/04/27 05:13:34;;;;;;;7.35;4.18;;;17.20;77.90;;;;;;5132315;27;20073;-65
2022/04/27 05:16:00;;;;;;;8.82;4.80;;;;;;;;;;5127851;27;20076;-65
2022/04/27 05:18:26;;;;;;;7.30;4.80;;;17.40;78.00;;;;;;5118205;27;20407;-65
2022/04/27 05:20:52;;;;;;;8.70;4.55;;;17.30;77.90;;;;;;5122636;27;20039;-65
2022/04/27 05:23:18;;;;;;;11.30;4.60;;;17.20;75.30;;;;;;5142454;27;20398;-65
2022/04/27 05:25:43;;;;;;;8.25;4.85;;;17.10;77.90;;;;;;5136854;27;20514;-64
2022/04/27 05:28:09;;;;;;;7.28;4.70;;;17.00;75.10;;;;;;5123047;27;20542;-65
2022/04/27 05:33:23;;;;;;;6.97;5.05;;;17.30;78.40;;;;;;5119204;27;20441;-65
2022/04/27 05:35:49;;;;;;;7.60;5.38;;;17.50;78.10;;;;;;5115637;28;20051;-65
2022/04/27 05:38:15;;;;;;;9.45;5.50;;;17.20;78.40;;;;;;5105936;27;20061;-65
2022/04/27 05:40:43;;;;;;;7.78;4.68;;;17.30;78.10;;;;;;5135554;27;20114;-65
2022/04/27 05:43:09;;;;;;;7.50;4.63;;;17.40;78.10;;;;;;5136014;27;20115;-65
2022/04/27 05:45:35;;;;;;;7.38;4.70;;;17.20;78.00;;;;;;5151463;27;20436;-65
2022/04/27 05:48:01;;;;;;;7.30;4.65;;;17.30;78.10;;;;;;5136479;27;20121;-65
2022/04/27 05:50:27;;;;;;;7.45;4.53;;;17.40;78.20;;;;;;5130315;28;20043;-65
2022/04/27 05:52:56;;;;;;;8.10;4.80;;;17.40;75.00;;;;;;5133943;27;20081;-66
2022/04/27 05:55:22;;;;;;;8.32;5.32;;;17.40;78.40;;;;;;5135905;27;20046;-63
2022/04/27 05:57:48;;;;;;;7.60;4.38;;;17.40;78.50;;;;;;5139186;27;20496;-68
2022/04/27 06:00:14;;;;;;;9.27;4.93;;;17.30;78.30;;;;;;5132372;27;20077;-68
2022/04/27 06:02:40;;;;;;;9.13;4.70;;;17.50;78.70;;;;;;5136997;27;20544;-64
2022/04/27 06:05:07;;;;;;;55.42;12.80;;;17.40;78.90;;;;;;5115854;28;20047;-63
2022/04/27 06:07:36;;;;;;;41.65;10.90;;;17.40;78.50;;;;;;5098548;28;20051;-64
2022/04/27 06:10:06;;;;;;;43.33;12.40;;;17.70;79.30;;;;;;5102778;28;20054;-64
2022/04/27 06:12:39;;;;;;;34.75;9.77;;;17.70;78.70;;;;;;5099810;28;20131;-64
2022/04/27 06:15:10;;;;;;;34.67;9.95;;;17.50;78.50;;;;;;5131427;27;20054;-64
2022/04/27 06:17:36;;;;;;;29.73;8.68;;;17.30;78.40;;;;;;5135585;27;20035;-63
2022/04/27 06:20:02;;;;;;;28.88;8.57;;;;;;;;;;5144074;27;20045;-65
2022/04/27 06:22:28;;;;;;;31.15;9.32;;;17.30;78.30;;;;;;5097634;27;20031;-63
2022/04/27 06:24:54;;;;;;;24.02;8.15;;;17.70;78.50;;;;;;5136839;27;20504;-63
2022/04/27 06:27:21;;;;;;;28.67;8.27;;;17.50;78.50;;;;;;5154608;27;20031;-66
2022/04/27 06:29:47;;;;;;;32.90;9.75;;;;;;;;;;5134111;27;20050;-65
2022/04/27 06:32:13;;;;;;;20.70;7.65;;;17.70;78.60;;;;;;5154794;27;20379;-62
2022/04/27 06:34:38;;;;;;;24.98;8.05;;;17.60;78.40;;;;;;5146830;27;20047;-62
2022/04/27 06:37:04;;;;;;;17.42;6.97;;;17.60;78.40;;;;;;5154104;27;20103;-65
2022/04/27 06:39:30;;;;;;;19.35;7.68;;;17.60;78.40;;;;;;5128906;27;20126;-64
2022/04/27 06:41:55;;;;;;;24.35;7.55;;;17.80;78.50;;;;;;5146836;27;20046;-65
2022/04/27 06:44:21;;;;;;;16.73;6.82;;;17.50;78.90;;;;;;5156583;27;20126;-66
2022/04/27 06:46:47;;;;;;;18.65;7.28;;;17.60;78.60;;;;;;5139173;27;20099;-62
2022/04/27 06:49:13;;;;;;;21.67;7.28;;;;;;;;;;5137875;27;20035;-62
2022/04/27 06:51:39;;;;;;;18.23;6.97;;;17.70;78.40;;;;;;5119568;27;20484;-62
2022/04/27 06:54:05;;;;;;;14.20;6.80;;;17.60;78.40;;;;;;5155369;27;20502;-62
2022/04/27 06:56:31;;;;;;;16.70;6.68;;;17.70;78.40;;;;;;5138612;27;20035;-63
2022/04/27 06:58:56;;;;;;;18.50;7.03;;;17.50;78.20;;;;;;5137280;27;20039;-63
2022/04/27 07:01:22;;;;;;;16.75;7.00;;;17.80;78.50;;;;;;5137294;27;20047;-63
2022/04/27 07:03:53;;;;;;;13.32;6.30;;;17.90;75.90;;;;;;5119231;27;20072;-65
2022/04/27 07:06:21;;;;;;;16.10;6.57;;;;;;;;;;5119846;27;20068;-64
2022/04/27 07:08:47;;;;;;;15.50;6.57;;;17.60;78.20;;;;;;5119191;27;20051;-65
2022/04/27 07:11:13;;;;;;;13.27;5.95;;;17.80;75.70;;;;;;5118802;27;20043;-65
2022/04/27 07:13:38;;;;;;;13.20;5.65;;;17.70;78.20;;;;;;5136219;27;20123;-67
2022/04/27 07:16:05;;;;;;;14.70;5.70;;;17.90;78.40;;;;;;5143465;27;20043;-65
2022/04/27 07:18:31;;;;;;;12.10;6.00;;;;;;;;;;5137196;27;20043;-64
2022/04/27 07:20:57;;;;;;;13.32;5.50;;;17.90;75.60;;;;;;5130528;27;20113;-65
2022/04/27 07:23:25;;;;;;;16.45;5.75;;;17.90;75.10;;;;;;5138095;27;20476;-65
2022/04/27 07:25:51;;;;;;;15.98;6.20;;;17.90;78.00;;;;;;5137409;27;20043;-65
2022/04/27 07:28:17;;;;;;;11.98;5.45;;;;;;;;;;5134813;27;20130;-63
2022/04/27 07:30:44;;;;;;;15.32;5.50;;;;;;;;;;5134480;27;20035;-64
2022/04/27 07:33:10;;;;;;;12.82;5.85;;;18.10;77.90;;;;;;5116348;27;20468;-64
2022/04/27 07:35:36;;;;;;;11.60;5.57;;;;;;;;;;5134508;27;20066;-63
2022/04/27 07:38:02;;;;;;;14.30;5.93;;;18.10;74.60;;;;;;5135572;27;20086;-63
2022/04/27 07:40:28;;;;;;;12.38;5.63;;;;;;;;;;5134104;27;20462;-64
2022/04/27 07:42:55;;;;;;;12.63;5.53;;;18.30;75.50;;;;;;5136538;27;20527;-64
2022/04/27 07:45:21;;;;;;;15.43;5.70;;;18.40;77.20;;;;;;5135984;27;20441;-63
2022/04/27 07:47:47;;;;;;;16.92;6.03;;;18.40;74.60;;;;;;5135719;27;20095;-64
2022/04/27 07:50:14;;;;;;;16.02;6.05;;;18.50;77.20;;;;;;5115996;27;20078;-66
2022/04/27 07:52:40;;;;;;;19.98;7.20;;;;;;;;;;5133823;27;20119;-63
2022/04/27 07:55:06;;;;;;;13.10;5.00;;;18.40;73.80;;;;;;5114962;27;20047;-64
2022/04/27 07:57:33;;;;;;;15.05;6.10;;;18.40;76.80;;;;;;5121423;27;20129;-64
2022/04/27 07:59:59;;;;;;;18.70;6.65;;;18.30;76.70;;;;;;5134783;27;20043;-65
2022/04/27 08:02:25;;;;;;;19.40;6.40;;;;;;;;;;5115335;27;20083;-68
2022/04/27 08:04:51;;;;;;;18.30;5.38;;;18.40;76.70;;;;;;5115068;27;20075;-67
2022/04/27 08:07:17;;;;;;;17.25;6.15;;;;;;;;;;5134974;27;20090;-64
2022/04/27 08:09:43;;;;;;;15.70;5.85;;;;;;;;;;5135316;27;20396;-64
2022/04/27 08:12:09;;;;;;;15.85;6.32;;;;;;;;;;5134803;27;20143;-65
2022/04/27 08:14:36;;;;;;;15.82;5.70;;;18.60;76.50;;;;;;5112892;27;20095;-65
2022/04/27 08:17:02;;;;;;;15.20;4.63;;;18.30;76.40;;;;;;5135084;27;20031;-63
2022/04/27 08:19:28;;;;;;;15.98;5.03;;;;;;;;;;5121115;27;20051;-64
2022/04/27 08:21:55;;;;;;;12.65;4.55;;;;;;;;;;5113945;27;20162;-67
2022/04/27 08:24:24;;;;;;;12.75;4.43;;;18.60;73.30;;;;;;5118124;27;20047;-62
2022/04/27 08:26:51;;;;;;;15.93;4.97;;;;;;;;;;5132139;27;20085;-65
2022/04/27 08:29:17;;;;;;;12.90;4.18;;;;;;;;;;5147928;27;20082;-64
2022/04/27 08:31:43;;;;;;;11.27;4.57;;;;;;;;;;5132355;27;20084;-64
2022/04/27 08:34:09;;;;;;;11.30;4.15;;;;;;;;;;5133633;27;20487;-65
2022/04/27 08:36:35;;;;;;;12.02;4.28;;;18.70;76.10;;;;;;5130906;27;20548;-66
2022/04/27 08:39:01;;;;;;;12.23;4.03;;;;;;;;;;5112771;27;20195;-66
2022/04/27 08:41:28;;;;;;;10.40;4.57;;;;;;;;;;5114152;27;20042;-63
2022/04/27 08:43:55;;;;;;;15.13;4.35;;;18.70;73.10;;;;;;5099130;27;20055;-64
2022/04/27 08:46:21;;;;;;;11.25;4.45;;;;;;;;;;5115049;27;20043;-64
2022/04/27 08:48:47;;;;;;;13.95;5.38;;;18.70;75.90;;;;;;5111698;27;20039;-63
2022/04/27 08:51:13;;;;;;;10.93;4.32;;;;;;;;;;5113542;27;20043;-63
2022/04/27 08:53:40;;;;;;;9.57;4.03;;;;;;;;;;5131397;27;20050;-62
2022/04/27 08:56:08;;;;;;;9.20;3.75;;;18.90;76.00;;;;;;5131973;27;20430;-64
2022/04/27 08:58:35;;;;;;;11.23;4.20;;;18.80;72.00;;;;;;5141502;27;20043;-64
2022/04/27 09:01:00;;;;;;;16.13;4.32;;;18.90;76.00;;;;;;5117019;27;20487;-62
2022/04/27 09:03:34;;;;;;;11.38;3.58;;;18.80;71.40;;;;;;5099730;27;20078;-66
2022/04/27 09:06:02;;;;;;;14.20;4.47;;;18.80;75.70;;;;;;5115837;27;20054;-66
2022/04/27 09:08:40;;;;;;;10.57;3.70;;;18.80;71.10;;;;;;5117269;27;20039;-65
2022/04/27 09:11:27;;;;;;;9.57;3.72;;;18.80;72.80;;;;;;5133728;27;20106;-65
2022/04/27 09:13:58;;;;;;;8.52;3.42;;;18.90;75.50;;;;;;5116622;27;20462;-65
2022/04/27 09:22:11;;;;;;;8.60;3.25;;;18.80;71.60;;;;;;5134702;27;20050;-65
2022/04/27 09:24:53;;;;;;;11.32;3.47;;;18.90;72.50;;;;;;5135209;27;20082;-65
2022/04/27 09:27:19;;;;;;;11.38;3.53;;;18.90;71.40;;;;;;5116494;27;20047;-66
2022/04/27 09:29:58;;;;;;;7.97;3.17;;;19.00;75.10;;;;;;5134840;27;20051;-67
2022/04/27 09:32:24;;;;;;;8.55;3.03;;;19.10;75.20;;;;;;5116416;27;20054;-66
2022/04/27 09:34:50;;;;;;;10.55;3.22;;;19.00;75.20;;;;;;5134495;27;20545;-66
2022/04/27 09:37:17;;;;;;;6.93;3.00;;;19.10;72.50;;;;;;5134220;27;20058;-65
2022/04/27 09:39:44;;;;;;;9.85;3.25;;;19.00;75.20;;;;;;5116039;27;20527;-65
2022/04/27 09:42:10;;;;;;;7.50;3.42;;;18.80;72.30;;;;;;5116936;28;20401;-67
2022/04/27 09:44:37;;;;;;;8.18;3.10;;;19.10;75.20;;;;;;5134700;27;20047;-66
2022/04/27 09:47:04;;;;;;;11.70;3.10;;;18.90;75.00;;;;;;5134720;28;20043;-66
2022/04/27 09:49:31;;;;;;;10.45;3.38;;;18.90;75.00;;;;;;5134683;28;20053;-65
2022/04/27 09:51:57;;;;;;;8.23;3.10;;;18.90;74.90;;;;;;5133453;28;20043;-67
2022/04/27 09:54:24;;;;;;;8.45;3.38;;;19.00;75.00;;;;;;5134485;28;20039;-68
2022/04/27 09:56:57;;;;;;;10.07;2.97;;;19.10;72.60;;;;;;5115953;28;20050;-66
2022/04/27 09:59:27;;;;;;;7.05;2.90;;;18.80;74.90;;;;;;5132539;28;20054;-66
2022/04/27 10:01:58;;;;;;;8.07;3.22;;;19.10;75.10;;;;;;5116149;28;20043;-65
2022/04/27 10:04:26;;;;;;;9.18;3.28;;;19.00;74.90;;;;;;5115961;28;20032;-65
2022/04/27 10:06:52;;;;;;;6.68;2.90;;;19.20;72.70;;;;;;5134505;28;20061;-65
2022/04/27 10:09:18;;;;;;;10.32;3.33;;;19.00;74.90;;;;;;5098803;28;20047;-65
2022/04/27 10:11:44;;;;;;;6.65;2.55;;;19.20;72.20;;;;;;5115808;28;20123;-66
2022/04/27 10:14:11;;;;;;;5.15;2.53;;;19.20;74.90;;;;;;5103138;28;20123;-66
2022/04/27 10:16:37;;;;;;;6.85;2.75;;;19.20;74.90;;;;;;5113401;27;20047;-66
2022/04/27 10:19:02;;;;;;;6.18;2.95;;;19.20;72.10;;;;;;5136950;27;20054;-65
2022/04/27 10:21:57;;;;;;;10.02;3.15;;;19.00;74.60;;;;;;5137264;27;20031;-65
2022/04/27 10:24:35;;;;;;;7.85;3.10;;;19.50;74.90;;;;;;5137903;27;20047;-66
2022/04/27 10:27:18;;;;;;;8.13;2.80;;;19.40;74.70;;;;;;5138042;27;20507;-66
2022/04/27 10:30:13;;;;;;;5.68;2.58;;;19.10;74.60;;;;;;5137987;27;20039;-65
2022/04/27 10:32:42;;;;;;;5.80;2.47;;;19.40;70.10;;;;;;5098550;27;20492;-66
2022/04/27 10:35:27;;;;;;;6.05;2.75;;;19.20;72.00;;;;;;5138204;27;20043;-65
2022/04/27 10:37:57;;;;;;;6.97;2.60;;;19.40;74.80;;;;;;5137606;27;20086;-65
2022/04/27 10:40:33;;;;;;;6.10;2.85;;;19.30;74.70;;;;;;5119467;27;20054;-65
2022/04/27 10:43:02;;;;;;;8.95;2.80;;;19.50;74.70;;;;;;5137717;27;20047;-65
2022/04/27 10:45:28;;;;;;;6.63;2.92;;;19.50;74.70;;;;;;5119286;27;20039;-67
2022/04/27 10:47:54;;;;;;;6.32;2.83;;;19.30;74.50;;;;;;5119238;27;20381;-63
2022/04/27 10:50:21;;;;;;;7.10;2.90;;;19.60;74.70;;;;;;5135899;27;20090;-63
2022/04/27 10:52:51;;;;;;;5.88;2.72;;;19.30;74.50;;;;;;5138005;27;20043;-62
2022/04/27 10:55:35;;;;;;;6.70;2.67;;;19.40;70.00;;;;;;5137744;27;20035;-62
2022/04/27 10:58:13;;;;;;;7.90;2.75;;;19.60;74.70;;;;;;5119312;27;20075;-63
2022/04/27 11:00:57;;;;;;;6.47;2.65;;;19.40;71.90;;;;;;5120372;27;20493;-63
2022/04/27 11:03:26;;;;;;;6.43;3.03;;;19.50;74.70;;;;;;5137277;27;20126;-63
2022/04/27 11:05:52;;;;;;;6.65;2.47;;;19.60;70.70;;;;;;5102399;27;20035;-63
2022/04/27 11:08:21;;;;;;;8.77;3.10;;;19.60;74.70;;;;;;5137739;27;20043;-62
2022/04/27 11:10:48;;;;;;;7.18;2.50;;;19.70;74.80;;;;;;5118919;27;20058;-63
2022/04/27 11:13:14;;;;;;;6.05;2.60;;;19.50;74.60;;;;;;5137336;27;20514;-63
2022/04/27 11:15:39;;;;;;;5.28;2.50;;;19.60;71.80;;;;;;5119169;27;20047;-63
2022/04/27 11:18:05;;;;;;;6.28;2.60;;;19.70;71.80;;;;;;5118748;27;20096;-63
2022/04/27 11:20:33;;;;;;;7.88;3.10;;;19.40;74.40;;;;;;5137241;27;20039;-62
2022/04/27 11:23:00;;;;;;;6.85;2.85;;;19.60;74.60;;;;;;5118489;27;20051;-62
2022/04/27 11:25:30;;;;;;;5.38;2.40;;;19.90;74.60;;;;;;5119945;27;20043;-68
2022/04/27 11:27:59;;;;;;;9.02;2.80;;;19.40;74.10;;;;;;5115487;27;20055;-67
2022/04/27 11:30:26;;;;;;;6.97;2.55;;;19.70;74.40;;;;;;5118988;27;20066;-67
2022/04/27 11:32:52;;;;;;;7.00;2.85;;;19.60;74.40;;;;;;5118493;27;20103;-66
2022/04/27 11:35:21;;;;;;;8.57;2.80;;;19.70;71.80;;;;;;5145243;27;20388;-67
2022/04/27 11:37:47;;;;;;;6.80;2.75;;;19.60;74.40;;;;;;5132863;27;20125;-65
2022/04/27 11:40:17;;;;;;;8.00;3.17;;;19.50;74.30;;;;;;5138843;27;20577;-66
2022/04/27 11:42:44;;;;;;;6.88;2.67;;;19.30;74.20;;;;;;5120814;27;20050;-67
2022/04/27 11:45:11;;;;;;;7.85;2.95;;;19.60;72.00;;;;;;5136586;27;20050;-65
2022/04/27 11:47:37;;;;;;;5.70;2.65;;;19.60;74.50;;;;;;5119773;27;20070;-66
2022/04/27 11:50:04;;;;;;;6.50;3.03;;;19.70;74.50;;;;;;5118036;27;20043;-63
2022/04/27 11:52:36;;;;;;;6.70;2.40;;;19.80;74.70;;;;;;5109041;27;20046;-66
2022/04/27 11:55:12;;;;;;;7.63;3.00;;;19.70;74.60;;;;;;5122578;27;20050;-67
2022/04/27 11:57:41;;;;;;;7.72;2.85;;;19.40;71.40;;;;;;5103436;27;20395;-67
2022/04/27 12:00:08;;;;;;;4.50;2.42;;;19.70;74.70;;;;;;5155199;27;20082;-65
2022/04/27 12:02:34;;;;;;;7.28;3.05;;;19.80;74.60;;;;;;5104782;27;20392;-64
2022/04/27 12:05:00;;;;;;;5.63;2.50;;;19.60;74.40;;;;;;5121669;27;20088;-65
2022/04/27 12:07:25;;;;;;;7.25;2.53;;;19.80;74.70;;;;;;5119504;27;20452;-65
2022/04/27 12:10:09;;;;;;;6.07;3.05;;;19.80;71.60;;;;;;5122927;27;20051;-65
2022/04/27 12:12:38;;;;;;;7.22;2.80;;;19.60;74.60;;;;;;5117901;27;20054;-64
2022/04/27 12:15:09;;;;;;;7.15;2.78;;;19.70;74.60;;;;;;5104878;27;20051;-65
2022/04/27 12:17:47;;;;;;;6.40;2.60;;;19.80;71.80;;;;;;5121337;27;20082;-66
2022/04/27 12:20:37;;;;;;;7.53;2.75;;;19.90;74.80;;;;;;5124357;27;20047;-65
2022/04/27 12:23:10;;;;;;;10.75;2.88;;;19.80;74.80;;;;;;5117307;27;20492;-67
2022/04/27 12:25:43;;;;;;;7.85;2.67;;;19.70;74.80;;;;;;5100361;27;20043;-67
2022/04/27 12:28:16;;;;;;;10.10;2.80;;;19.60;74.80;;;;;;5117704;27;20058;-64
2022/04/27 12:30:47;;;;;;;7.47;2.90;;;19.70;74.70;;;;;;5100050;27;20047;-68
2022/04/27 12:33:14;;;;;;;10.02;3.20;;;;;;;;;;5116232;27;20154;-68
2022/04/27 12:38:32;;;;;;;9.85;3.60;;;;;;;;;;5079888;27;20179;-65
2022/04/27 12:40:59;;;;;;;8.57;3.13;;;19.50;74.90;;;;;;5126070;27;20059;-68
2022/04/27 12:43:25;;;;;;;7.68;2.92;;;;;;;;;;5097740;27;20043;-64
2022/04/27 12:46:12;;;;;;;7.85;2.78;;;19.50;75.00;;;;;;5099645;27;20065;-67
2022/04/27 12:48:38;;;;;;;9.05;3.10;;;;;;;;;;5145395;27;20055;-67
2022/04/27 12:51:08;;;;;;;10.00;3.13;;;19.20;69.90;;;;;;5127624;27;20480;-69
2022/04/27 12:53:35;;;;;;;11.18;3.13;;;;;;;;;;5140167;27;20055;-62
2022/04/27 12:56:04;;;;;;;7.30;3.33;;;19.20;71.40;;;;;;5117940;27;20039;-64
2022/04/27 12:58:32;;;;;;;10.60;3.20;;;;;;;;;;5112453;27;20631;-68
2022/04/27 13:00:58;;;;;;;6.45;2.75;;;;;;;;;;5112483;27;20042;-71
2022/04/27 13:03:25;;;;;;;9.75;2.88;;;;;;;;;;5114688;27;20538;-70
2022/04/27 13:05:51;;;;;;;7.25;2.72;;;19.00;74.30;;;;;;5127954;27;20046;-65
2022/04/27 13:08:17;;;;;;;8.95;2.70;;;19.20;74.50;;;;;;5114449;27;20057;-63
2022/04/27 13:13:33;;;;;;;13.38;3.67;;;;;;;;;;5131820;27;20377;-65
2022/04/27 13:16:02;;;;;;;11.25;3.03;;;19.40;72.80;;;;;;5134214;27;20039;-66
2022/04/27 13:18:28;;;;;;;8.52;2.72;;;;;;;;;;5114178;27;20086;-64
2022/04/27 13:20:55;;;;;;;8.32;2.70;;;;;;;;;;5137213;27;20054;-65
2022/04/27 13:23:22;;;;;;;11.45;2.90;;;19.50;72.60;;;;;;5114739;27;20027;-63
2022/04/27 13:25:48;;;;;;;8.90;2.85;;;19.30;74.60;;;;;;5133159;27;20466;-65